sensor_id;sensor_type;location;lat;lon;timestamp;pressure;altitude;pressure_sealevel;temperature;humidity
64853;BME280;56050;55.558;-4.644;2023-03-01T00:01:16;104046.97;;;9.23;56.13
64853;BME280;56050;55.558;-4.644;2023-03-01T00:03:42;104050.75;;;9.22;55.92
64853;BME280;56050;55.558;-4.644;2023-03-01T00:06:08;104043.78;;;9.21;56.01
64853;BME280;56050;55.558;-4.644;2023-03-01T00:08:34;104052.66;;;9.22;55.96
64853;BME280;56050;55.558;-4.644;2023-03-01T00:11:24;104055.63;;;9.20;56.20
64853;BME280;56050;55.558;-4.644;2023-03-01T00:13:52;104046.75;;;9.20;56.08
64853;BME280;56050;55.558;-4.644;2023-03-01T00:16:27;104054.53;;;9.21;55.89
64853;BME280;56050;55.558;-4.644;2023-03-01T00:18:54;104051.34;;;9.19;55.91
64853;BME280;56050;55.558;-4.644;2023-03-01T00:21:21;104058.63;;;9.19;55.99
64853;BME280;56050;55.558;-4.644;2023-03-01T00:23:49;104053.25;;;9.19;56.08
64853;BME280;56050;55.558;-4.644;2023-03-01T00:26:17;104054.31;;;9.18;55.89
64853;BME280;56050;55.558;-4.644;2023-03-01T00:28:44;104052.44;;;9.18;56.01
64853;BME280;56050;55.558;-4.644;2023-03-01T00:31:13;104053.53;;;9.17;55.92
64853;BME280;56050;55.558;-4.644;2023-03-01T00:33:39;104047.88;;;9.19;55.89
64853;BME280;56050;55.558;-4.644;2023-03-01T00:36:05;104044.06;;;9.20;55.84
64853;BME280;56050;55.558;-4.644;2023-03-01T00:38:35;104044.88;;;9.20;55.99
64853;BME280;56050;55.558;-4.644;2023-03-01T00:41:06;104038.69;;;9.20;55.87
64853;BME280;56050;55.558;-4.644;2023-03-01T00:43:33;104043.06;;;9.16;55.92
64853;BME280;56050;55.558;-4.644;2023-03-01T00:46:03;104049.03;;;9.13;56.00
64853;BME280;56050;55.558;-4.644;2023-03-01T00:48:29;104045.84;;;9.11;55.98
64853;BME280;56050;55.558;-4.644;2023-03-01T00:50:54;104042.63;;;9.09;56.03
64853;BME280;56050;55.558;-4.644;2023-03-01T00:53:20;104048.31;;;9.07;55.96
64853;BME280;56050;55.558;-4.644;2023-03-01T00:55:45;104042.63;;;9.09;55.92
64853;BME280;56050;55.558;-4.644;2023-03-01T00:58:11;104039.16;;;9.08;56.00
64853;BME280;56050;55.558;-4.644;2023-03-01T01:00:36;104040.56;;;9.06;55.97
64853;BME280;56050;55.558;-4.644;2023-03-01T01:03:01;104037.66;;;9.02;55.99
64853;BME280;56050;55.558;-4.644;2023-03-01T01:05:27;104032.84;;;8.99;56.06
64853;BME280;56050;55.558;-4.644;2023-03-01T01:07:52;104032.84;;;8.99;56.15
64853;BME280;56050;55.558;-4.644;2023-03-01T01:10:18;104038.03;;;8.96;55.93
64853;BME280;56050;55.558;-4.644;2023-03-01T01:12:45;104028.16;;;8.91;56.06
64853;BME280;56050;55.558;-4.644;2023-03-01T01:15:10;104024.44;;;8.87;56.12
64853;BME280;56050;55.558;-4.644;2023-03-01T01:17:38;104020.75;;;8.83;56.27
64853;BME280;56050;55.558;-4.644;2023-03-01T01:20:04;104026.41;;;8.81;56.23
64853;BME280;56050;55.558;-4.644;2023-03-01T01:22:30;104018.66;;;8.80;56.30
64853;BME280;56050;55.558;-4.644;2023-03-01T01:24:55;104025.09;;;8.79;56.33
64853;BME280;56050;55.558;-4.644;2023-03-01T01:27:21;104027.81;;;8.79;56.25
64853;BME280;56050;55.558;-4.644;2023-03-01T01:29:46;104025.09;;;8.79;56.33
64853;BME280;56050;55.558;-4.644;2023-03-01T01:32:12;104028.59;;;8.79;56.24
64853;BME280;56050;55.558;-4.644;2023-03-01T01:34:37;104027.81;;;8.79;56.26
64853;BME280;56050;55.558;-4.644;2023-03-01T01:37:02;104026.22;;;8.78;56.30
64853;BME280;56050;55.558;-4.644;2023-03-01T01:39:28;104025.41;;;8.77;56.39
64853;BME280;56050;55.558;-4.644;2023-03-01T01:41:54;104023.81;;;8.76;56.25
64853;BME280;56050;55.558;-4.644;2023-03-01T01:44:21;104021.13;;;8.76;56.33
64853;BME280;56050;55.558;-4.644;2023-03-01T01:47:07;104018.44;;;8.76;56.24
64853;BME280;56050;55.558;-4.644;2023-03-01T01:49:48;104016.81;;;8.75;56.21
64853;BME280;56050;55.558;-4.644;2023-03-01T01:52:27;104014.94;;;8.76;56.24
64853;BME280;56050;55.558;-4.644;2023-03-01T01:55:08;104017.63;;;8.76;56.38
64853;BME280;56050;55.558;-4.644;2023-03-01T02:00:09;104006.38;;;8.74;56.34
64853;BME280;56050;55.558;-4.644;2023-03-01T02:02:36;104003.47;;;8.70;56.43
64853;BME280;56050;55.558;-4.644;2023-03-01T02:07:54;104000.59;;;8.67;56.54
64853;BME280;56050;55.558;-4.644;2023-03-01T02:10:22;103995.50;;;8.65;56.63
64853;BME280;56050;55.558;-4.644;2023-03-01T02:12:48;103997.59;;;8.68;56.51
64853;BME280;56050;55.558;-4.644;2023-03-01T02:15:14;103993.03;;;8.69;56.44
64853;BME280;56050;55.558;-4.644;2023-03-01T02:17:40;103982.84;;;8.66;56.53
64853;BME280;56050;55.558;-4.644;2023-03-01T02:22:37;103983.03;;;8.56;56.47
64853;BME280;56050;55.558;-4.644;2023-03-01T02:30:46;103967.63;;;8.43;56.80
64853;BME280;56050;55.558;-4.644;2023-03-01T02:33:32;103966.84;;;8.42;56.65
64853;BME280;56050;55.558;-4.644;2023-03-01T02:36:03;103963.94;;;8.39;56.92
64853;BME280;56050;55.558;-4.644;2023-03-01T02:38:29;103954.84;;;8.35;56.84
64853;BME280;56050;55.558;-4.644;2023-03-01T02:40:56;103959.16;;;8.36;56.81
64853;BME280;56050;55.558;-4.644;2023-03-01T02:43:27;103963.72;;;8.35;56.73
64853;BME280;56050;55.558;-4.644;2023-03-01T02:45:58;103958.06;;;8.37;56.73
64853;BME280;56050;55.558;-4.644;2023-03-01T02:48:24;103957.19;;;8.41;56.82
64853;BME280;56050;55.558;-4.644;2023-03-01T02:54:04;103942.16;;;8.40;56.75
64853;BME280;56050;55.558;-4.644;2023-03-01T02:56:32;103946.13;;;8.43;56.62
64853;BME280;56050;55.558;-4.644;2023-03-01T02:58:58;103942.88;;;8.46;56.73
64853;BME280;56050;55.558;-4.644;2023-03-01T03:01:26;103952.75;;;8.50;56.65
64853;BME280;56050;55.558;-4.644;2023-03-01T03:04:06;103952.44;;;8.52;56.64
64853;BME280;56050;55.558;-4.644;2023-03-01T03:06:32;103948.16;;;8.51;56.44
64853;BME280;56050;55.558;-4.644;2023-03-01T03:08:58;103947.38;;;8.50;56.66
64853;BME280;56050;55.558;-4.644;2023-03-01T03:11:24;103942.00;;;8.50;56.74
64853;BME280;56050;55.558;-4.644;2023-03-01T03:13:49;103945.78;;;8.49;56.87
64853;BME280;56050;55.558;-4.644;2023-03-01T03:16:15;103943.88;;;8.50;56.71
64853;BME280;56050;55.558;-4.644;2023-03-01T03:18:40;103942.50;;;8.52;56.63
64853;BME280;56050;55.558;-4.644;2023-03-01T03:21:10;103937.13;;;8.52;56.73
64853;BME280;56050;55.558;-4.644;2023-03-01T03:23:36;103938.72;;;8.53;56.68
64853;BME280;56050;55.558;-4.644;2023-03-01T03:26:03;103939.50;;;8.54;56.79
64853;BME280;56050;55.558;-4.644;2023-03-01T03:28:30;103934.44;;;8.52;56.60
64853;BME280;56050;55.558;-4.644;2023-03-01T03:30:56;103943.59;;;8.51;56.69
64853;BME280;56050;55.558;-4.644;2023-03-01T03:33:21;103936.91;;;8.49;56.90
64853;BME280;56050;55.558;-4.644;2023-03-01T03:35:48;103926.75;;;8.46;56.84
64853;BME280;56050;55.558;-4.644;2023-03-01T03:38:16;103925.16;;;8.45;56.99
64853;BME280;56050;55.558;-4.644;2023-03-01T03:40:46;103926.56;;;8.42;56.97
64853;BME280;56050;55.558;-4.644;2023-03-01T03:43:14;103928.13;;;8.43;56.91
64853;BME280;56050;55.558;-4.644;2023-03-01T03:45:41;103920.38;;;8.42;57.08
64853;BME280;56050;55.558;-4.644;2023-03-01T03:48:09;103917.38;;;8.43;56.92
64853;BME280;56050;55.558;-4.644;2023-03-01T03:50:35;103917.97;;;8.40;57.00
64853;BME280;56050;55.558;-4.644;2023-03-01T03:53:03;103915.00;;;8.42;56.93
64853;BME280;56050;55.558;-4.644;2023-03-01T03:55:29;103908.34;;;8.39;56.97
64853;BME280;56050;55.558;-4.644;2023-03-01T03:57:58;103899.47;;;8.39;57.03
64853;BME280;56050;55.558;-4.644;2023-03-01T04:00:27;103902.16;;;8.39;56.88
64853;BME280;56050;55.558;-4.644;2023-03-01T04:02:52;103893.28;;;8.38;57.01
64853;BME280;56050;55.558;-4.644;2023-03-01T04:05:21;103890.59;;;8.38;56.96
64853;BME280;56050;55.558;-4.644;2023-03-01T04:07:47;103895.09;;;8.43;56.94
64853;BME280;56050;55.558;-4.644;2023-03-01T04:10:16;103897.19;;;8.46;56.78
64853;BME280;56050;55.558;-4.644;2023-03-01T04:12:42;103882.09;;;8.50;56.73
64853;BME280;56050;55.558;-4.644;2023-03-01T04:15:09;103877.22;;;8.52;56.67
64853;BME280;56050;55.558;-4.644;2023-03-01T04:17:45;103878.81;;;8.53;56.64
64853;BME280;56050;55.558;-4.644;2023-03-01T04:20:14;103877.44;;;8.55;56.63
64853;BME280;56050;55.558;-4.644;2023-03-01T04:22:50;103885.72;;;8.59;56.68
64853;BME280;56050;55.558;-4.644;2023-03-01T04:25:15;103884.31;;;8.61;56.45
64853;BME280;56050;55.558;-4.644;2023-03-01T04:27:40;103890.19;;;8.63;56.48
64853;BME280;56050;55.558;-4.644;2023-03-01T04:30:08;103885.31;;;8.65;56.44
64853;BME280;56050;55.558;-4.644;2023-03-01T04:32:33;103886.38;;;8.64;56.30
64853;BME280;56050;55.558;-4.644;2023-03-01T04:34:59;103888.41;;;8.59;56.41
64853;BME280;56050;55.558;-4.644;2023-03-01T04:37:25;103882.81;;;8.55;56.57
64853;BME280;56050;55.558;-4.644;2023-03-01T04:39:51;103900.00;;;8.54;56.51
64853;BME280;56050;55.558;-4.644;2023-03-01T04:42:16;103877.72;;;8.54;56.39
64853;BME280;56050;55.558;-4.644;2023-03-01T04:44:43;103883.16;;;8.49;56.53
64853;BME280;56050;55.558;-4.644;2023-03-01T04:47:08;103881.06;;;8.46;56.73
64853;BME280;56050;55.558;-4.644;2023-03-01T04:49:34;103886.44;;;8.46;56.45
64853;BME280;56050;55.558;-4.644;2023-03-01T04:51:59;103883.97;;;8.49;56.48
64853;BME280;56050;55.558;-4.644;2023-03-01T04:54:30;103880.22;;;8.50;56.53
64853;BME280;56050;55.558;-4.644;2023-03-01T04:56:56;103892.03;;;8.49;56.58
64853;BME280;56050;55.558;-4.644;2023-03-01T04:59:21;103884.28;;;8.48;56.56
64853;BME280;56050;55.558;-4.644;2023-03-01T05:01:48;103887.56;;;8.45;56.52
64853;BME280;56050;55.558;-4.644;2023-03-01T05:04:14;103889.44;;;8.44;56.68
64853;BME280;56050;55.558;-4.644;2023-03-01T05:06:39;103876.28;;;8.43;56.64
64853;BME280;56050;55.558;-4.644;2023-03-01T05:09:05;103881.66;;;8.43;56.61
64853;BME280;56050;55.558;-4.644;2023-03-01T05:11:31;103881.16;;;8.41;56.41
64853;BME280;56050;55.558;-4.644;2023-03-01T05:14:04;103878.56;;;8.36;56.34
64853;BME280;56050;55.558;-4.644;2023-03-01T05:16:30;103871.41;;;8.31;56.33
64853;BME280;56050;55.558;-4.644;2023-03-01T05:18:56;103880.03;;;8.28;56.37
64853;BME280;56050;55.558;-4.644;2023-03-01T05:21:22;103881.91;;;8.27;56.25
64853;BME280;56050;55.558;-4.644;2023-03-01T05:23:47;103874.91;;;8.26;56.13
64853;BME280;56050;55.558;-4.644;2023-03-01T05:26:13;103886.75;;;8.25;56.30
64853;BME280;56050;55.558;-4.644;2023-03-01T05:28:39;103877.09;;;8.24;56.21
64853;BME280;56050;55.558;-4.644;2023-03-01T05:31:05;103878.00;;;8.20;56.21
64853;BME280;56050;55.558;-4.644;2023-03-01T05:33:38;103872.88;;;8.18;56.15
64853;BME280;56050;55.558;-4.644;2023-03-01T05:36:05;103865.34;;;8.20;56.29
64853;BME280;56050;55.558;-4.644;2023-03-01T05:38:31;103870.44;;;8.22;56.18
64853;BME280;56050;55.558;-4.644;2023-03-01T05:40:56;103868.53;;;8.22;56.24
64853;BME280;56050;55.558;-4.644;2023-03-01T05:43:22;103865.28;;;8.25;56.22
64853;BME280;56050;55.558;-4.644;2023-03-01T05:45:47;103863.66;;;8.24;56.15
64853;BME280;56050;55.558;-4.644;2023-03-01T05:48:13;103860.50;;;8.22;56.26
64853;BME280;56050;55.558;-4.644;2023-03-01T05:50:43;103865.63;;;8.19;56.11
64853;BME280;56050;55.558;-4.644;2023-03-01T05:53:16;103869.22;;;8.14;56.37
64853;BME280;56050;55.558;-4.644;2023-03-01T05:55:43;103870.06;;;8.10;56.50
64853;BME280;56050;55.558;-4.644;2023-03-01T05:58:15;103869.84;;;8.06;56.42
64853;BME280;56050;55.558;-4.644;2023-03-01T06:00:41;103870.94;;;8.05;56.48
64853;BME280;56050;55.558;-4.644;2023-03-01T06:03:06;103870.16;;;8.05;56.47
64853;BME280;56050;55.558;-4.644;2023-03-01T06:05:35;103865.84;;;8.04;56.44
64853;BME280;56050;55.558;-4.644;2023-03-01T06:08:01;103865.09;;;8.03;56.43
64853;BME280;56050;55.558;-4.644;2023-03-01T06:10:27;103871.22;;;8.04;56.47
64853;BME280;56050;55.558;-4.644;2023-03-01T06:12:53;103877.72;;;8.03;56.43
64853;BME280;56050;55.558;-4.644;2023-03-01T06:15:18;103878.78;;;8.02;56.52
64853;BME280;56050;55.558;-4.644;2023-03-01T06:17:45;103873.72;;;8.00;56.49
64853;BME280;56050;55.558;-4.644;2023-03-01T06:20:18;103882.84;;;7.99;56.41
64853;BME280;56050;55.558;-4.644;2023-03-01T06:22:45;103885.53;;;7.99;56.51
64853;BME280;56050;55.558;-4.644;2023-03-01T06:25:13;103876.19;;;7.97;56.48
64853;BME280;56050;55.558;-4.644;2023-03-01T06:27:39;103883.44;;;7.96;56.48
64853;BME280;56050;55.558;-4.644;2023-03-01T06:30:05;103879.94;;;7.96;56.33
64853;BME280;56050;55.558;-4.644;2023-03-01T06:32:32;103878.38;;;7.95;56.67
64853;BME280;56050;55.558;-4.644;2023-03-01T06:34:57;103889.91;;;7.95;56.59
64853;BME280;56050;55.558;-4.644;2023-03-01T06:37:23;103885.84;;;7.98;56.47
64853;BME280;56050;55.558;-4.644;2023-03-01T06:39:49;103881.78;;;8.00;56.52
64853;BME280;56050;55.558;-4.644;2023-03-01T06:42:14;103884.66;;;8.04;56.47
64853;BME280;56050;55.558;-4.644;2023-03-01T06:44:40;103888.13;;;8.04;56.52
64853;BME280;56050;55.558;-4.644;2023-03-01T06:47:05;103878.78;;;8.02;56.63
64853;BME280;56050;55.558;-4.644;2023-03-01T06:49:30;103889.53;;;8.02;56.44
64853;BME280;56050;55.558;-4.644;2023-03-01T06:51:56;103882.56;;;8.01;56.68
64853;BME280;56050;55.558;-4.644;2023-03-01T06:54:22;103891.13;;;8.03;56.64
64853;BME280;56050;55.558;-4.644;2023-03-01T06:56:49;103884.47;;;8.00;56.61
64853;BME280;56050;55.558;-4.644;2023-03-01T06:59:15;103892.50;;;8.00;56.60
64853;BME280;56050;55.558;-4.644;2023-03-01T07:01:40;103893.88;;;7.98;56.69
64853;BME280;56050;55.558;-4.644;2023-03-01T07:04:06;103897.16;;;7.95;56.79
64853;BME280;56050;55.558;-4.644;2023-03-01T07:06:31;103900.13;;;7.93;56.74
64853;BME280;56050;55.558;-4.644;2023-03-01T07:08:57;103892.38;;;7.92;56.76
64853;BME280;56050;55.558;-4.644;2023-03-01T07:11:22;103889.94;;;7.90;56.79
64853;BME280;56050;55.558;-4.644;2023-03-01T07:13:48;103893.44;;;7.91;56.80
64853;BME280;56050;55.558;-4.644;2023-03-01T07:16:13;103894.53;;;7.90;56.68
64853;BME280;56050;55.558;-4.644;2023-03-01T07:18:40;103901.00;;;7.89;56.71
64853;BME280;56050;55.558;-4.644;2023-03-01T07:21:06;103898.59;;;7.87;56.83
64853;BME280;56050;55.558;-4.644;2023-03-01T07:23:31;103907.25;;;7.84;56.67
64853;BME280;56050;55.558;-4.644;2023-03-01T07:25:57;103904.03;;;7.82;56.65
64853;BME280;56050;55.558;-4.644;2023-03-01T07:28:23;103909.38;;;7.82;56.66
64853;BME280;56050;55.558;-4.644;2023-03-01T07:30:48;103913.19;;;7.81;56.75
64853;BME280;56050;55.558;-4.644;2023-03-01T07:33:14;103919.94;;;7.79;56.89
64853;BME280;56050;55.558;-4.644;2023-03-01T07:35:40;103917.25;;;7.79;56.83
64853;BME280;56050;55.558;-4.644;2023-03-01T07:38:05;103917.75;;;7.81;56.85
64853;BME280;56050;55.558;-4.644;2023-03-01T07:40:30;103915.56;;;7.83;56.74
64853;BME280;56050;55.558;-4.644;2023-03-01T07:42:57;103920.66;;;7.84;56.62
64853;BME280;56050;55.558;-4.644;2023-03-01T07:45:23;103920.66;;;7.84;56.83
64853;BME280;56050;55.558;-4.644;2023-03-01T07:47:51;103918.25;;;7.83;56.80
64853;BME280;56050;55.558;-4.644;2023-03-01T07:50:16;103916.38;;;7.83;56.75
64853;BME280;56050;55.558;-4.644;2023-03-01T07:52:44;103915.56;;;7.83;56.87
64853;BME280;56050;55.558;-4.644;2023-03-01T07:55:09;103913.97;;;7.82;56.93
64853;BME280;56050;55.558;-4.644;2023-03-01T07:57:35;103910.19;;;7.83;56.87
64853;BME280;56050;55.558;-4.644;2023-03-01T08:00:00;103911.50;;;7.85;56.74
64853;BME280;56050;55.558;-4.644;2023-03-01T08:02:25;103918.16;;;7.88;56.92
64853;BME280;56050;55.558;-4.644;2023-03-01T08:04:51;103917.91;;;7.89;56.85
64853;BME280;56050;55.558;-4.644;2023-03-01T08:07:16;103918.41;;;7.91;56.73
64853;BME280;56050;55.558;-4.644;2023-03-01T08:09:42;103912.72;;;7.93;56.61
64853;BME280;56050;55.558;-4.644;2023-03-01T08:12:07;103917.53;;;7.96;57.00
64853;BME280;56050;55.558;-4.644;2023-03-01T08:14:32;103917.25;;;7.97;56.78
64853;BME280;56050;55.558;-4.644;2023-03-01T08:16:58;103929.88;;;7.97;56.86
64853;BME280;56050;55.558;-4.644;2023-03-01T08:19:23;103925.00;;;7.99;56.77
64853;BME280;56050;55.558;-4.644;2023-03-01T08:21:49;103918.81;;;7.98;56.76
64853;BME280;56050;55.558;-4.644;2023-03-01T08:24:14;103926.88;;;7.98;56.98
64853;BME280;56050;55.558;-4.644;2023-03-01T08:26:40;103917.75;;;7.99;56.83
64853;BME280;56050;55.558;-4.644;2023-03-01T08:29:05;103915.78;;;8.05;56.71
64853;BME280;56050;55.558;-4.644;2023-03-01T08:31:36;103915.78;;;8.05;56.79
64853;BME280;56050;55.558;-4.644;2023-03-01T08:34:08;103916.59;;;8.05;56.85
64853;BME280;56050;55.558;-4.644;2023-03-01T08:36:39;103921.38;;;8.08;57.05
64853;BME280;56050;55.558;-4.644;2023-03-01T08:39:06;103922.13;;;8.14;57.01
64853;BME280;56050;55.558;-4.644;2023-03-01T08:41:32;103923.41;;;8.16;56.88
64853;BME280;56050;55.558;-4.644;2023-03-01T08:43:58;103920.72;;;8.16;57.06
64853;BME280;56050;55.558;-4.644;2023-03-01T08:46:27;103935.69;;;8.22;56.90
64853;BME280;56050;55.558;-4.644;2023-03-01T08:48:53;103924.94;;;8.22;56.75
64853;BME280;56050;55.558;-4.644;2023-03-01T08:51:19;103929.19;;;8.23;57.10
64853;BME280;56050;55.558;-4.644;2023-03-01T08:53:47;103927.03;;;8.25;56.96
64853;BME280;56050;55.558;-4.644;2023-03-01T08:56:14;103918.41;;;8.28;56.84
64853;BME280;56050;55.558;-4.644;2023-03-01T08:58:43;103925.13;;;8.31;56.89
64853;BME280;56050;55.558;-4.644;2023-03-01T09:01:10;103925.59;;;8.33;56.93
64853;BME280;56050;55.558;-4.644;2023-03-01T09:03:36;103925.59;;;8.33;56.99
64853;BME280;56050;55.558;-4.644;2023-03-01T09:06:03;103927.50;;;8.33;56.99
64853;BME280;56050;55.558;-4.644;2023-03-01T09:08:29;103936.63;;;8.32;56.92
64853;BME280;56050;55.558;-4.644;2023-03-01T09:10:55;103930.19;;;8.33;57.15
64853;BME280;56050;55.558;-4.644;2023-03-01T09:13:21;103927.72;;;8.36;57.10
64853;BME280;56050;55.558;-4.644;2023-03-01T09:15:48;103925.84;;;8.37;57.12
64853;BME280;56050;55.558;-4.644;2023-03-01T09:18:14;103917.56;;;8.33;57.19
64853;BME280;56050;55.558;-4.644;2023-03-01T09:20:39;103922.44;;;8.31;57.42
64853;BME280;56050;55.558;-4.644;2023-03-01T09:23:05;103913.34;;;8.27;57.48
64853;BME280;56050;55.558;-4.644;2023-03-01T09:25:30;103909.81;;;8.26;57.34
64853;BME280;56050;55.558;-4.644;2023-03-01T09:27:55;103900.63;;;8.33;57.59
64853;BME280;56050;55.558;-4.644;2023-03-01T09:30:21;103900.63;;;8.33;57.63
64853;BME280;56050;55.558;-4.644;2023-03-01T09:32:47;103887.03;;;8.24;57.62
64853;BME280;56050;55.558;-4.644;2023-03-01T09:35:12;103881.13;;;8.27;58.08
64853;BME280;56050;55.558;-4.644;2023-03-01T09:37:38;103884.28;;;8.29;58.05
64853;BME280;56050;55.558;-4.644;2023-03-01T09:40:05;103881.91;;;8.27;58.13
64853;BME280;56050;55.558;-4.644;2023-03-01T09:42:33;103880.06;;;8.23;58.23
64853;BME280;56050;55.558;-4.644;2023-03-01T09:45:22;103876.88;;;8.21;58.32
64853;BME280;56050;55.558;-4.644;2023-03-01T09:47:50;103888.41;;;8.21;58.26
64853;BME280;56050;55.558;-4.644;2023-03-01T09:50:19;103881.97;;;8.22;58.32
64853;BME280;56050;55.558;-4.644;2023-03-01T09:53:19;103886.81;;;8.20;58.39
64853;BME280;56050;55.558;-4.644;2023-03-01T09:56:02;103877.69;;;8.21;58.28
64853;BME280;56050;55.558;-4.644;2023-03-01T09:59:09;103896.78;;;8.20;58.35
64853;BME280;56050;55.558;-4.644;2023-03-01T10:01:57;103898.13;;;8.17;58.50
64853;BME280;56050;55.558;-4.644;2023-03-01T10:07:11;103901.44;;;8.14;58.43
64853;BME280;56050;55.558;-4.644;2023-03-01T10:09:42;103897.50;;;8.07;58.43
64853;BME280;56050;55.558;-4.644;2023-03-01T10:12:11;103897.56;;;8.02;58.71
64853;BME280;56050;55.558;-4.644;2023-03-01T10:14:51;103892.72;;;8.04;58.71
64853;BME280;56050;55.558;-4.644;2023-03-01T10:19:46;103883.34;;;8.01;58.63
64853;BME280;56050;55.558;-4.644;2023-03-01T10:22:22;103886.56;;;8.03;58.73
64853;BME280;56050;55.558;-4.644;2023-03-01T10:24:51;103881.38;;;8.07;58.76
64853;BME280;56050;55.558;-4.644;2023-03-01T10:27:22;103885.09;;;8.11;58.66
64853;BME280;56050;55.558;-4.644;2023-03-01T10:29:50;103878.94;;;8.10;58.80
64853;BME280;56050;55.558;-4.644;2023-03-01T10:32:18;103886.69;;;8.12;58.96
64853;BME280;56050;55.558;-4.644;2023-03-01T10:34:44;103879.66;;;8.16;58.73
64853;BME280;56050;55.558;-4.644;2023-03-01T10:37:15;103886.75;;;8.25;58.76
64853;BME280;56050;55.558;-4.644;2023-03-01T10:42:33;103894.91;;;8.39;58.56
64853;BME280;56050;55.558;-4.644;2023-03-01T10:45:30;103893.63;;;8.50;58.77
64853;BME280;56050;55.558;-4.644;2023-03-01T10:48:23;103870.94;;;8.56;58.45
64853;BME280;56050;55.558;-4.644;2023-03-01T10:53:37;103871.50;;;8.72;58.38
64853;BME280;56050;55.558;-4.644;2023-03-01T10:56:11;103866.03;;;8.77;58.22
64853;BME280;56050;55.558;-4.644;2023-03-01T10:58:40;103863.25;;;8.82;58.15
64853;BME280;56050;55.558;-4.644;2023-03-01T11:01:27;103868.22;;;8.89;58.13
64853;BME280;56050;55.558;-4.644;2023-03-01T11:06:37;103868.03;;;9.12;57.88
64853;BME280;56050;55.558;-4.644;2023-03-01T11:09:23;103852.81;;;9.21;57.92
64853;BME280;56050;55.558;-4.644;2023-03-01T11:11:54;103856.38;;;9.30;57.81
64853;BME280;56050;55.558;-4.644;2023-03-01T11:14:29;103849.97;;;9.40;57.60
64853;BME280;56050;55.558;-4.644;2023-03-01T11:17:03;103845.78;;;9.48;57.69
64853;BME280;56050;55.558;-4.644;2023-03-01T11:19:30;103835.91;;;9.57;57.61
64853;BME280;56050;55.558;-4.644;2023-03-01T11:22:19;103830.00;;;9.68;57.45
64853;BME280;56050;55.558;-4.644;2023-03-01T11:24:54;103831.97;;;9.76;57.16
64853;BME280;56050;55.558;-4.644;2023-03-01T11:27:30;103828.94;;;9.78;57.26
64853;BME280;56050;55.558;-4.644;2023-03-01T11:32:58;103819.97;;;9.82;56.82
64853;BME280;56050;55.558;-4.644;2023-03-01T11:35:28;103814.16;;;9.89;56.56
64853;BME280;56050;55.558;-4.644;2023-03-01T11:38:21;103812.44;;;9.93;56.55
64853;BME280;56050;55.558;-4.644;2023-03-01T11:41:16;103810.44;;;9.98;56.45
64853;BME280;56050;55.558;-4.644;2023-03-01T11:52:25;103801.25;;;9.99;55.46
64853;BME280;56050;55.558;-4.644;2023-03-01T11:58:04;103789.97;;;9.75;55.86
64853;BME280;56050;55.558;-4.644;2023-03-01T12:19:56;103770.91;;;10.08;55.45
64853;BME280;56050;55.558;-4.644;2023-03-01T12:22:57;103756.16;;;10.05;55.29
64853;BME280;56050;55.558;-4.644;2023-03-01T12:26:02;103765.19;;;10.09;55.12
64853;BME280;56050;55.558;-4.644;2023-03-01T12:50:03;103705.81;;;10.53;54.45
64853;BME280;56050;55.558;-4.644;2023-03-01T12:52:52;103692.81;;;10.55;54.38
64853;BME280;56050;55.558;-4.644;2023-03-01T12:55:26;103701.09;;;10.59;54.31
64853;BME280;56050;55.558;-4.644;2023-03-01T13:09:40;103677.81;;;10.89;53.80
64853;BME280;56050;55.558;-4.644;2023-03-01T13:17:47;103671.00;;;11.17;53.09
64853;BME280;56050;55.558;-4.644;2023-03-01T13:20:15;103667.34;;;11.21;52.84
64853;BME280;56050;55.558;-4.644;2023-03-01T13:22:42;103661.19;;;11.21;52.75
64853;BME280;56050;55.558;-4.644;2023-03-01T13:25:17;103669.28;;;11.21;52.87
64853;BME280;56050;55.558;-4.644;2023-03-01T13:27:44;103666.41;;;11.17;52.46
64853;BME280;56050;55.558;-4.644;2023-03-01T13:35:55;103662.59;;;11.18;52.07
64853;BME280;56050;55.558;-4.644;2023-03-01T13:41:02;103661.81;;;11.18;51.67
64853;BME280;56050;55.558;-4.644;2023-03-01T13:43:35;103655.63;;;11.17;51.93
64853;BME280;56050;55.558;-4.644;2023-03-01T13:46:17;103650.53;;;11.16;51.91
64853;BME280;56050;55.558;-4.644;2023-03-01T13:48:45;103648.00;;;11.11;52.01
64853;BME280;56050;55.558;-4.644;2023-03-01T13:51:13;103651.81;;;11.10;51.85
64853;BME280;56050;55.558;-4.644;2023-03-01T13:53:42;103637.84;;;11.08;51.91
64853;BME280;56050;55.558;-4.644;2023-03-01T13:56:12;103636.28;;;11.07;51.74
64853;BME280;56050;55.558;-4.644;2023-03-01T13:58:52;103631.97;;;11.06;51.64
64853;BME280;56050;55.558;-4.644;2023-03-01T14:01:38;103635.13;;;11.08;51.60
64853;BME280;56050;55.558;-4.644;2023-03-01T14:06:44;103632.78;;;11.06;51.79
64853;BME280;56050;55.558;-4.644;2023-03-01T14:09:25;103637.84;;;11.08;51.91
64853;BME280;56050;55.558;-4.644;2023-03-01T14:19:47;103624.69;;;11.06;52.13
64853;BME280;56050;55.558;-4.644;2023-03-01T14:22:18;103622.91;;;11.02;52.09
64853;BME280;56050;55.558;-4.644;2023-03-01T14:24:51;103607.06;;;11.00;52.35
64853;BME280;56050;55.558;-4.644;2023-03-01T14:27:17;103614.06;;;11.01;52.00
64853;BME280;56050;55.558;-4.644;2023-03-01T14:29:44;103604.84;;;11.02;51.98
64853;BME280;56050;55.558;-4.644;2023-03-01T14:32:26;103601.03;;;11.03;51.99
64853;BME280;56050;55.558;-4.644;2023-03-01T14:34:53;103599.13;;;11.04;51.95
64853;BME280;56050;55.558;-4.644;2023-03-01T14:37:21;103593.41;;;11.05;51.94
64853;BME280;56050;55.558;-4.644;2023-03-01T14:39:47;103586.91;;;11.06;51.79
64853;BME280;56050;55.558;-4.644;2023-03-01T14:42:14;103585.78;;;11.07;51.75
64853;BME280;56050;55.558;-4.644;2023-03-01T14:44:43;103582.63;;;11.05;51.70
64853;BME280;56050;55.558;-4.644;2023-03-01T14:47:12;103595.81;;;11.07;51.71
64853;BME280;56050;55.558;-4.644;2023-03-01T14:49:40;103595.47;;;11.08;51.63
64853;BME280;56050;55.558;-4.644;2023-03-01T14:52:19;103589.28;;;11.08;51.58
64853;BME280;56050;55.558;-4.644;2023-03-01T14:54:51;103588.47;;;11.07;51.42
64853;BME280;56050;55.558;-4.644;2023-03-01T14:57:23;103579.63;;;11.07;51.47
64853;BME280;56050;55.558;-4.644;2023-03-01T14:59:51;103583.41;;;11.06;51.54